sensor_id;sensor_type;location;lat;lon;timestamp;temperature;humidity
43227;DHT22;28839;52.404;9.808;2023-05-25T00:02:10;8.80;99.90
43227;DHT22;28839;52.404;9.808;2023-05-25T00:09:06;8.50;99.90
43227;DHT22;28839;52.404;9.808;2023-05-25T00:16:01;8.50;99.90
43227;DHT22;28839;52.404;9.808;2023-05-25T00:22:56;8.40;99.90
43227;DHT22;28839;52.404;9.808;2023-05-25T00:29:50;8.40;99.90
43227;DHT22;28839;52.404;9.808;2023-05-25T00:36:44;8.20;99.90
43227;DHT22;28839;52.404;9.808;2023-05-25T00:43:41;8.20;99.90
43227;DHT22;28839;52.404;9.808;2023-05-25T00:50:37;8.20;99.90
43227;DHT22;28839;52.404;9.808;2023-05-25T00:57:32;8.20;99.90
43227;DHT22;28839;52.404;9.808;2023-05-25T02:07:05;7.60;99.90
43227;DHT22;28839;52.404;9.808;2023-05-25T02:13:59;7.50;99.90
43227;DHT22;28839;52.404;9.808;2023-05-25T02:20:53;7.40;99.90
43227;DHT22;28839;52.404;9.808;2023-05-25T02:27:49;7.30;99.90
43227;DHT22;28839;52.404;9.808;2023-05-25T02:34:43;7.20;99.90
43227;DHT22;28839;52.404;9.808;2023-05-25T02:41:38;7.30;99.90
43227;DHT22;28839;52.404;9.808;2023-05-25T02:48:33;7.50;99.90
43227;DHT22;28839;52.404;9.808;2023-05-25T02:55:27;7.60;99.90
43227;DHT22;28839;52.404;9.808;2023-05-25T03:02:21;7.80;99.90
43227;DHT22;28839;52.404;9.808;2023-05-25T03:09:18;7.90;99.90
43227;DHT22;28839;52.404;9.808;2023-05-25T03:16:12;8.00;99.90
43227;DHT22;28839;52.404;9.808;2023-05-25T03:23:06;8.00;99.90
43227;DHT22;28839;52.404;9.808;2023-05-25T03:30:01;8.20;99.90
43227;DHT22;28839;52.404;9.808;2023-05-25T03:36:55;8.30;99.90
43227;DHT22;28839;52.404;9.808;2023-05-25T03:43:49;8.40;99.90
43227;DHT22;28839;52.404;9.808;2023-05-25T03:50:44;8.40;99.90
43227;DHT22;28839;52.404;9.808;2023-05-25T03:57:38;8.50;99.90
43227;DHT22;28839;52.404;9.808;2023-05-25T04:04:32;8.60;99.90
43227;DHT22;28839;52.404;9.808;2023-05-25T04:11:27;8.60;99.90
43227;DHT22;28839;52.404;9.808;2023-05-25T04:18:21;8.70;99.90
43227;DHT22;28839;52.404;9.808;2023-05-25T04:25:14;8.80;99.90
43227;DHT22;28839;52.404;9.808;2023-05-25T04:32:12;8.80;99.90
43227;DHT22;28839;52.404;9.808;2023-05-25T04:39:09;9.00;99.90
43227;DHT22;28839;52.404;9.808;2023-05-25T04:46:03;9.10;99.90
43227;DHT22;28839;52.404;9.808;2023-05-25T04:53:00;9.10;99.90
43227;DHT22;28839;52.404;9.808;2023-05-25T04:59:54;9.20;99.90
43227;DHT22;28839;52.404;9.808;2023-05-25T05:06:48;9.30;99.90
43227;DHT22;28839;52.404;9.808;2023-05-25T05:13:44;9.30;99.90
43227;DHT22;28839;52.404;9.808;2023-05-25T05:20:37;9.40;99.90
43227;DHT22;28839;52.404;9.808;2023-05-25T05:27:31;9.30;99.90
43227;DHT22;28839;52.404;9.808;2023-05-25T05:34:27;9.40;99.90
43227;DHT22;28839;52.404;9.808;2023-05-25T05:41:21;9.50;99.90
43227;DHT22;28839;52.404;9.808;2023-05-25T05:48:15;9.50;99.90
43227;DHT22;28839;52.404;9.808;2023-05-25T05:55:10;9.50;99.90
43227;DHT22;28839;52.404;9.808;2023-05-25T06:02:05;9.50;99.90
43227;DHT22;28839;52.404;9.808;2023-05-25T06:08:59;9.60;99.90
43227;DHT22;28839;52.404;9.808;2023-05-25T06:15:56;9.50;99.90
43227;DHT22;28839;52.404;9.808;2023-05-25T06:22:50;9.60;99.90
43227;DHT22;28839;52.404;9.808;2023-05-25T06:29:43;9.60;99.90
43227;DHT22;28839;52.404;9.808;2023-05-25T06:36:39;9.70;99.90
43227;DHT22;28839;52.404;9.808;2023-05-25T06:43:33;9.90;99.90
43227;DHT22;28839;52.404;9.808;2023-05-25T06:50:26;9.80;99.90
43227;DHT22;28839;52.404;9.808;2023-05-25T06:57:22;10.20;99.90
43227;DHT22;28839;52.404;9.808;2023-05-25T07:04:16;10.50;99.90
43227;DHT22;28839;52.404;9.808;2023-05-25T07:11:09;10.60;99.90
43227;DHT22;28839;52.404;9.808;2023-05-25T07:18:06;10.80;99.90
43227;DHT22;28839;52.404;9.808;2023-05-25T07:25:04;10.90;99.90
43227;DHT22;28839;52.404;9.808;2023-05-25T07:31:58;11.30;99.90
43227;DHT22;28839;52.404;9.808;2023-05-25T07:38:53;11.10;99.90
43227;DHT22;28839;52.404;9.808;2023-05-25T07:45:47;11.40;99.90
43227;DHT22;28839;52.404;9.808;2023-05-25T07:52:41;11.90;99.90
43227;DHT22;28839;52.404;9.808;2023-05-25T07:59:36;11.80;99.90
43227;DHT22;28839;52.404;9.808;2023-05-25T08:06:31;11.70;99.90
43227;DHT22;28839;52.404;9.808;2023-05-25T08:13:26;12.10;99.90
43227;DHT22;28839;52.404;9.808;2023-05-25T08:20:21;12.20;99.90
43227;DHT22;28839;52.404;9.808;2023-05-25T08:27:17;12.10;99.90
43227;DHT22;28839;52.404;9.808;2023-05-25T08:34:11;12.20;99.90
43227;DHT22;28839;52.404;9.808;2023-05-25T08:41:06;12.40;99.90
43227;DHT22;28839;52.404;9.808;2023-05-25T08:48:00;12.40;99.90
43227;DHT22;28839;52.404;9.808;2023-05-25T08:54:57;12.50;99.90
43227;DHT22;28839;52.404;9.808;2023-05-25T09:02:01;12.60;99.90
43227;DHT22;28839;52.404;9.808;2023-05-25T09:08:57;12.90;99.90
43227;DHT22;28839;52.404;9.808;2023-05-25T09:15:51;12.90;99.90
43227;DHT22;28839;52.404;9.808;2023-05-25T09:22:47;13.10;99.90
43227;DHT22;28839;52.404;9.808;2023-05-25T09:29:41;13.20;99.90
43227;DHT22;28839;52.404;9.808;2023-05-25T09:36:35;13.20;99.90
43227;DHT22;28839;52.404;9.808;2023-05-25T09:43:34;13.20;99.90
43227;DHT22;28839;52.404;9.808;2023-05-25T09:50:28;13.20;99.90
43227;DHT22;28839;52.404;9.808;2023-05-25T09:57:22;13.30;99.90
43227;DHT22;28839;52.404;9.808;2023-05-25T10:04:18;13.20;99.90
43227;DHT22;28839;52.404;9.808;2023-05-25T10:11:12;13.40;99.90
43227;DHT22;28839;52.404;9.808;2023-05-25T10:18:08;13.50;99.90
43227;DHT22;28839;52.404;9.808;2023-05-25T10:25:08;13.50;99.90
43227;DHT22;28839;52.404;9.808;2023-05-25T10:32:03;13.60;99.90
43227;DHT22;28839;52.404;9.808;2023-05-25T10:38:58;13.90;99.90
43227;DHT22;28839;52.404;9.808;2023-05-25T10:45:54;14.20;99.90
43227;DHT22;28839;52.404;9.808;2023-05-25T10:52:59;14.10;99.90
43227;DHT22;28839;52.404;9.808;2023-05-25T10:59:54;13.90;99.90
43227;DHT22;28839;52.404;9.808;2023-05-25T11:07:06;13.80;99.90
43227;DHT22;28839;52.404;9.808;2023-05-25T11:14:04;13.70;99.90
43227;DHT22;28839;52.404;9.808;2023-05-25T11:21:14;14.00;99.90
43227;DHT22;28839;52.404;9.808;2023-05-25T11:28:09;14.30;99.90
43227;DHT22;28839;52.404;9.808;2023-05-25T11:35:06;14.60;99.90
43227;DHT22;28839;52.404;9.808;2023-05-25T11:42:04;14.80;99.90
43227;DHT22;28839;52.404;9.808;2023-05-25T11:49:00;14.90;99.90
43227;DHT22;28839;52.404;9.808;2023-05-25T11:55:54;14.60;99.90
43227;DHT22;28839;52.404;9.808;2023-05-25T12:02:48;14.40;99.90
43227;DHT22;28839;52.404;9.808;2023-05-25T12:09:43;14.80;99.90
43227;DHT22;28839;52.404;9.808;2023-05-25T12:16:37;15.20;99.90
43227;DHT22;28839;52.404;9.808;2023-05-25T12:23:32;15.50;99.90
43227;DHT22;28839;52.404;9.808;2023-05-25T12:30:28;15.60;99.90
43227;DHT22;28839;52.404;9.808;2023-05-25T12:37:22;15.90;99.90
43227;DHT22;28839;52.404;9.808;2023-05-25T12:44:26;16.20;99.90
43227;DHT22;28839;52.404;9.808;2023-05-25T12:51:24;16.30;99.90
43227;DHT22;28839;52.404;9.808;2023-05-25T12:58:26;15.90;99.90
43227;DHT22;28839;52.404;9.808;2023-05-25T13:05:21;16.10;99.90
43227;DHT22;28839;52.404;9.808;2023-05-25T13:12:16;16.30;99.90
43227;DHT22;28839;52.404;9.808;2023-05-25T13:19:11;16.50;99.90
43227;DHT22;28839;52.404;9.808;2023-05-25T13:26:04;16.70;99.90
43227;DHT22;28839;52.404;9.808;2023-05-25T13:33:00;16.70;99.90
43227;DHT22;28839;52.404;9.808;2023-05-25T13:39:54;16.60;99.90
43227;DHT22;28839;52.404;9.808;2023-05-25T13:46:49;17.00;99.90
43227;DHT22;28839;52.404;9.808;2023-05-25T13:53:44;16.90;99.90
43227;DHT22;28839;52.404;9.808;2023-05-25T14:00:40;16.70;99.90
43227;DHT22;28839;52.404;9.808;2023-05-25T14:07:34;16.50;99.90
43227;DHT22;28839;52.404;9.808;2023-05-25T14:14:30;16.50;99.90
43227;DHT22;28839;52.404;9.808;2023-05-25T14:21:24;17.00;99.90
43227;DHT22;28839;52.404;9.808;2023-05-25T14:28:18;17.40;99.90
43227;DHT22;28839;52.404;9.808;2023-05-25T14:35:13;17.10;99.90
43227;DHT22;28839;52.404;9.808;2023-05-25T14:42:07;17.30;99.90
43227;DHT22;28839;52.404;9.808;2023-05-25T14:49:00;17.20;99.90
43227;DHT22;28839;52.404;9.808;2023-05-25T14:55:56;17.50;99.90
43227;DHT22;28839;52.404;9.808;2023-05-25T15:02:50;18.10;99.90
43227;DHT22;28839;52.404;9.808;2023-05-25T15:09:43;18.00;99.90
43227;DHT22;28839;52.404;9.808;2023-05-25T15:16:39;18.10;99.90
43227;DHT22;28839;52.404;9.808;2023-05-25T15:23:33;17.90;99.90
43227;DHT22;28839;52.404;9.808;2023-05-25T15:30:27;18.60;99.90
43227;DHT22;28839;52.404;9.808;2023-05-25T15:37:22;18.20;99.90
43227;DHT22;28839;52.404;9.808;2023-05-25T15:44:16;17.90;99.90
43227;DHT22;28839;52.404;9.808;2023-05-25T15:51:09;17.90;99.90
43227;DHT22;28839;52.404;9.808;2023-05-25T15:58:05;17.30;99.90
43227;DHT22;28839;52.404;9.808;2023-05-25T16:04:58;18.00;99.90
43227;DHT22;28839;52.404;9.808;2023-05-25T16:11:52;18.60;99.90
43227;DHT22;28839;52.404;9.808;2023-05-25T16:18:47;18.20;99.90
43227;DHT22;28839;52.404;9.808;2023-05-25T16:25:41;17.80;99.90
43227;DHT22;28839;52.404;9.808;2023-05-25T16:32:35;17.70;99.90
43227;DHT22;28839;52.404;9.808;2023-05-25T16:39:31;17.70;99.90
43227;DHT22;28839;52.404;9.808;2023-05-25T16:46:25;17.70;99.90
43227;DHT22;28839;52.404;9.808;2023-05-25T16:53:18;17.80;99.90
43227;DHT22;28839;52.404;9.808;2023-05-25T17:00:15;18.00;99.90
43227;DHT22;28839;52.404;9.808;2023-05-25T17:07:08;17.90;99.90
43227;DHT22;28839;52.404;9.808;2023-05-25T17:14:03;17.70;99.90
43227;DHT22;28839;52.404;9.808;2023-05-25T17:20:58;17.50;99.90
43227;DHT22;28839;52.404;9.808;2023-05-25T17:27:53;17.20;99.90
43227;DHT22;28839;52.404;9.808;2023-05-25T17:34:47;17.30;99.90
43227;DHT22;28839;52.404;9.808;2023-05-25T17:41:42;16.90;99.90
43227;DHT22;28839;52.404;9.808;2023-05-25T17:48:37;17.00;99.90
43227;DHT22;28839;52.404;9.808;2023-05-25T17:55:30;16.90;99.90
43227;DHT22;28839;52.404;9.808;2023-05-25T18:02:26;16.80;99.90
43227;DHT22;28839;52.404;9.808;2023-05-25T18:09:21;16.80;99.90
43227;DHT22;28839;52.404;9.808;2023-05-25T18:16:15;16.40;99.90
43227;DHT22;28839;52.404;9.808;2023-05-25T18:23:10;16.40;99.90
43227;DHT22;28839;52.404;9.808;2023-05-25T18:30:06;16.10;99.90
43227;DHT22;28839;52.404;9.808;2023-05-25T18:37:00;15.90;99.90
43227;DHT22;28839;52.404;9.808;2023-05-25T18:43:55;15.70;99.90
43227;DHT22;28839;52.404;9.808;2023-05-25T18:50:49;15.60;99.90
43227;DHT22;28839;52.404;9.808;2023-05-25T18:57:43;15.40;99.90
43227;DHT22;28839;52.404;9.808;2023-05-25T19:04:38;15.20;99.90
43227;DHT22;28839;52.404;9.808;2023-05-25T19:11:32;14.90;99.90
43227;DHT22;28839;52.404;9.808;2023-05-25T19:18:26;14.70;99.90
43227;DHT22;28839;52.404;9.808;2023-05-25T19:25:21;14.50;99.90
43227;DHT22;28839;52.404;9.808;2023-05-25T19:32:15;14.40;99.90
43227;DHT22;28839;52.404;9.808;2023-05-25T19:39:09;14.20;99.90
43227;DHT22;28839;52.404;9.808;2023-05-25T19:46:04;14.00;99.90
43227;DHT22;28839;52.404;9.808;2023-05-25T19:52:58;13.90;99.90
43227;DHT22;28839;52.404;9.808;2023-05-25T19:59:52;13.70;99.90
43227;DHT22;28839;52.404;9.808;2023-05-25T20:06:48;13.50;99.90
43227;DHT22;28839;52.404;9.808;2023-05-25T20:13:42;13.50;99.90
43227;DHT22;28839;52.404;9.808;2023-05-25T20:20:37;13.20;99.90
43227;DHT22;28839;52.404;9.808;2023-05-25T20:27:32;13.10;99.90
43227;DHT22;28839;52.404;9.808;2023-05-25T20:34:26;12.80;99.90
43227;DHT22;28839;52.404;9.808;2023-05-25T20:41:20;12.70;99.90
43227;DHT22;28839;52.404;9.808;2023-05-25T20:48:15;12.50;99.90
43227;DHT22;28839;52.404;9.808;2023-05-25T20:55:09;12.40;99.90
43227;DHT22;28839;52.404;9.808;2023-05-25T21:02:03;12.30;99.90
43227;DHT22;28839;52.404;9.808;2023-05-25T21:08:58;12.20;99.90
43227;DHT22;28839;52.404;9.808;2023-05-25T21:15:53;12.00;99.90
43227;DHT22;28839;52.404;9.808;2023-05-25T21:22:46;12.00;99.90
43227;DHT22;28839;52.404;9.808;2023-05-25T21:29:41;11.80;99.90
43227;DHT22;28839;52.404;9.808;2023-05-25T21:36:35;11.60;99.90
43227;DHT22;28839;52.404;9.808;2023-05-25T21:43:29;11.50;99.90
43227;DHT22;28839;52.404;9.808;2023-05-25T21:50:24;11.50;99.90
43227;DHT22;28839;52.404;9.808;2023-05-25T21:57:18;11.20;99.90
43227;DHT22;28839;52.404;9.808;2023-05-25T22:04:12;11.00;99.90
43227;DHT22;28839;52.404;9.808;2023-05-25T22:11:07;11.10;99.90
43227;DHT22;28839;52.404;9.808;2023-05-25T22:18:01;11.00;99.90
43227;DHT22;28839;52.404;9.808;2023-05-25T22:24:55;10.80;99.90
43227;DHT22;28839;52.404;9.808;2023-05-25T22:31:50;10.70;99.90
43227;DHT22;28839;52.404;9.808;2023-05-25T22:38:45;10.60;99.90
43227;DHT22;28839;52.404;9.808;2023-05-25T22:45:38;10.50;99.90
43227;DHT22;28839;52.404;9.808;2023-05-25T22:52:34;10.50;99.90
43227;DHT22;28839;52.404;9.808;2023-05-25T22:59:27;10.40;99.90
43227;DHT22;28839;52.404;9.808;2023-05-25T23:06:21;10.30;99.90
43227;DHT22;28839;52.404;9.808;2023-05-25T23:13:16;10.30;99.90
43227;DHT22;28839;52.404;9.808;2023-05-25T23:20:11;10.20;99.90
43227;DHT22;28839;52.404;9.808;2023-05-25T23:27:05;10.00;99.90
43227;DHT22;28839;52.404;9.808;2023-05-25T23:34:00;10.00;99.90
43227;DHT22;28839;52.404;9.808;2023-05-25T23:40:54;9.80;99.90
43227;DHT22;28839;52.404;9.808;2023-05-25T23:47:48;9.80;99.90
43227;DHT22;28839;52.404;9.808;2023-05-25T23:54:43;9.60;99.90
